Airport Name : Sligo

Other Name : Sligo

ICAO : EISG

IATA : SXL

FAA :

Latitude : 54.280214

Longitude : -8.599206

Country : Ireland

Local Date and Time : 25 Jun 2024 06:24

 

TAF (Terminal Aerodrome Forecast)

TAF EISG 250200Z 2503/2512 34012KT 9999 BKN015 TEMPO 2503/2508 4000 BR BKN010

 

METAR (METeorological Aerodrome Report)